sensor_id;sensor_type;location;lat;lon;timestamp;pressure;altitude;pressure_sealevel;temperature;humidity
80644;BME280;70010;60.224;24.712;2024-02-14T00:00:40;101350.94;;;-6.62;59.57
80644;BME280;70010;60.224;24.712;2024-02-14T00:03:06;101347.56;;;-7.01;60.76
80644;BME280;70010;60.224;24.712;2024-02-14T00:05:32;101346.65;;;-6.53;60.08
80644;BME280;70010;60.224;24.712;2024-02-14T00:07:57;101344.18;;;-8.41;66.62
80644;BME280;70010;60.224;24.712;2024-02-14T00:10:23;101344.49;;;-6.44;60.31
80644;BME280;70010;60.224;24.712;2024-02-14T00:12:48;101343.68;;;-5.96;59.72
80644;BME280;70010;60.224;24.712;2024-02-14T00:15:13;101340.99;;;-8.16;67.16
80644;BME280;70010;60.224;24.712;2024-02-14T00:17:39;101343.39;;;-7.64;63.35
80644;BME280;70010;60.224;24.712;2024-02-14T00:20:05;101344.62;;;-7.30;63.42
80644;BME280;70010;60.224;24.712;2024-02-14T00:22:30;101338.64;;;-6.50;60.29
80644;BME280;70010;60.224;24.712;2024-02-14T00:24:56;101346.73;;;-8.69;68.52
80644;BME280;70010;60.224;24.712;2024-02-14T00:27:21;101342.67;;;-6.05;60.92
80644;BME280;70010;60.224;24.712;2024-02-14T00:29:46;101346.21;;;-6.28;60.74
80644;BME280;70010;60.224;24.712;2024-02-14T00:32:12;101349.09;;;-8.13;67.09
80644;BME280;70010;60.224;24.712;2024-02-14T00:34:37;101348.58;;;-5.61;59.24
80644;BME280;70010;60.224;24.712;2024-02-14T00:37:03;101353.48;;;-8.72;67.62
80644;BME280;70010;60.224;24.712;2024-02-14T00:39:28;101349.28;;;-9.36;70.60
80644;BME280;70010;60.224;24.712;2024-02-14T00:41:53;101341.26;;;-7.94;67.24
80644;BME280;70010;60.224;24.712;2024-02-14T00:44:19;101346.69;;;-8.91;70.46
80644;BME280;70010;60.224;24.712;2024-02-14T00:46:44;101341.42;;;-6.92;64.10
80644;BME280;70010;60.224;24.712;2024-02-14T00:49:10;101341.72;;;-6.54;63.29
80644;BME280;70010;60.224;24.712;2024-02-14T00:51:35;101345.25;;;-5.42;59.37
80644;BME280;70010;60.224;24.712;2024-02-14T00:54:00;101339.34;;;-6.08;61.10
80644;BME280;70010;60.224;24.712;2024-02-14T00:56:25;101330.96;;;-5.80;60.48
80644;BME280;70010;60.224;24.712;2024-02-14T00:58:51;101329.72;;;-6.68;63.31
80644;BME280;70010;60.224;24.712;2024-02-14T01:01:16;101333.98;;;-7.17;65.86
80644;BME280;70010;60.224;24.712;2024-02-14T01:03:42;101331.03;;;-7.51;64.68
80644;BME280;70010;60.224;24.712;2024-02-14T01:06:07;101330.95;;;-6.72;63.15
80644;BME280;70010;60.224;24.712;2024-02-14T01:08:33;101331.34;;;-8.26;69.30
80644;BME280;70010;60.224;24.712;2024-02-14T01:10:59;101326.73;;;-8.11;69.00
80644;BME280;70010;60.224;24.712;2024-02-14T01:13:23;101328.05;;;-6.86;64.66
80644;BME280;70010;60.224;24.712;2024-02-14T01:15:49;101324.14;;;-4.99;59.04
80644;BME280;70010;60.224;24.712;2024-02-14T01:18:14;101325.22;;;-6.04;60.21
80644;BME280;70010;60.224;24.712;2024-02-14T01:20:40;101323.25;;;-7.12;63.64
80644;BME280;70010;60.224;24.712;2024-02-14T01:23:05;101317.30;;;-6.54;63.46
80644;BME280;70010;60.224;24.712;2024-02-14T01:25:31;101326.09;;;-7.60;65.63
80644;BME280;70010;60.224;24.712;2024-02-14T01:27:56;101334.63;;;-8.52;71.14
80644;BME280;70010;60.224;24.712;2024-02-14T01:30:21;101330.26;;;-9.28;75.50
80644;BME280;70010;60.224;24.712;2024-02-14T01:32:46;101329.36;;;-9.45;76.71
80644;BME280;70010;60.224;24.712;2024-02-14T01:35:12;101318.20;;;-6.63;66.31
80644;BME280;70010;60.224;24.712;2024-02-14T01:37:38;101321.33;;;-7.39;67.90
80644;BME280;70010;60.224;24.712;2024-02-14T01:40:03;101316.22;;;-7.91;69.10
80644;BME280;70010;60.224;24.712;2024-02-14T01:42:28;101319.65;;;-7.39;66.72
80644;BME280;70010;60.224;24.712;2024-02-14T01:44:54;101320.91;;;-6.41;63.75
80644;BME280;70010;60.224;24.712;2024-02-14T01:47:19;101322.38;;;-7.33;66.28
80644;BME280;70010;60.224;24.712;2024-02-14T01:49:45;101323.97;;;-7.94;68.38
80644;BME280;70010;60.224;24.712;2024-02-14T01:52:11;101320.21;;;-8.07;71.45
80644;BME280;70010;60.224;24.712;2024-02-14T01:54:36;101324.56;;;-6.00;64.36
80644;BME280;70010;60.224;24.712;2024-02-14T01:57:02;101323.28;;;-7.38;65.41
80644;BME280;70010;60.224;24.712;2024-02-14T01:59:28;101321.82;;;-6.33;63.40
80644;BME280;70010;60.224;24.712;2024-02-14T02:01:53;101322.53;;;-5.57;61.96
80644;BME280;70010;60.224;24.712;2024-02-14T02:04:19;101326.07;;;-7.31;63.88
80644;BME280;70010;60.224;24.712;2024-02-14T02:06:44;101329.01;;;-8.56;72.41
80644;BME280;70010;60.224;24.712;2024-02-14T02:09:10;101330.73;;;-8.26;70.79
80644;BME280;70010;60.224;24.712;2024-02-14T02:11:45;101324.58;;;-6.06;63.76
80644;BME280;70010;60.224;24.712;2024-02-14T02:14:00;101314.68;;;-5.63;60.68
80644;BME280;70010;60.224;24.712;2024-02-14T02:16:25;101321.83;;;-6.80;63.91
80644;BME280;70010;60.224;24.712;2024-02-14T02:18:50;101327.70;;;-6.73;63.74
80644;BME280;70010;60.224;24.712;2024-02-14T02:21:16;101327.91;;;-6.24;62.69
80644;BME280;70010;60.224;24.712;2024-02-14T02:23:41;101331.66;;;-7.22;67.10
80644;BME280;70010;60.224;24.712;2024-02-14T02:26:07;101327.96;;;-7.96;69.37
80644;BME280;70010;60.224;24.712;2024-02-14T02:28:32;101332.77;;;-7.36;66.83
80644;BME280;70010;60.224;24.712;2024-02-14T02:30:57;101321.37;;;-7.01;66.10
80644;BME280;70010;60.224;24.712;2024-02-14T02:33:23;101317.07;;;-5.64;62.59
80644;BME280;70010;60.224;24.712;2024-02-14T02:35:49;101318.55;;;-6.84;64.91
80644;BME280;70010;60.224;24.712;2024-02-14T02:38:14;101316.39;;;-7.50;67.84
80644;BME280;70010;60.224;24.712;2024-02-14T02:40:38;101324.35;;;-6.09;64.12
80644;BME280;70010;60.224;24.712;2024-02-14T02:43:04;101326.17;;;-6.76;64.66
80644;BME280;70010;60.224;24.712;2024-02-14T02:45:30;101321.87;;;-5.82;62.14
80644;BME280;70010;60.224;24.712;2024-02-14T02:47:55;101320.21;;;-6.11;64.20
80644;BME280;70010;60.224;24.712;2024-02-14T02:50:21;101318.29;;;-6.44;64.69
80644;BME280;70010;60.224;24.712;2024-02-14T02:52:46;101308.90;;;-6.54;65.94
80644;BME280;70010;60.224;24.712;2024-02-14T02:55:11;101308.35;;;-5.82;63.61
80644;BME280;70010;60.224;24.712;2024-02-14T02:57:37;101312.88;;;-6.71;65.39
80644;BME280;70010;60.224;24.712;2024-02-14T03:00:02;101313.60;;;-8.13;71.91
80644;BME280;70010;60.224;24.712;2024-02-14T03:02:27;101315.21;;;-5.84;65.16
80644;BME280;70010;60.224;24.712;2024-02-14T03:04:53;101315.87;;;-6.64;66.85
80644;BME280;70010;60.224;24.712;2024-02-14T03:07:18;101321.91;;;-7.66;72.08
80644;BME280;70010;60.224;24.712;2024-02-14T03:09:44;101317.89;;;-8.47;75.31
80644;BME280;70010;60.224;24.712;2024-02-14T03:12:10;101317.52;;;-6.46;68.96
80644;BME280;70010;60.224;24.712;2024-02-14T03:14:35;101322.10;;;-5.81;66.23
80644;BME280;70010;60.224;24.712;2024-02-14T03:17:00;101319.70;;;-5.24;62.92
80644;BME280;70010;60.224;24.712;2024-02-14T03:19:26;101319.65;;;-5.61;62.88
80644;BME280;70010;60.224;24.712;2024-02-14T03:21:51;101317.39;;;-7.18;68.21
80644;BME280;70010;60.224;24.712;2024-02-14T03:24:17;101317.79;;;-6.41;66.42
80644;BME280;70010;60.224;24.712;2024-02-14T03:26:42;101320.02;;;-5.98;63.97
80644;BME280;70010;60.224;24.712;2024-02-14T03:29:08;101316.09;;;-6.56;65.55
80644;BME280;70010;60.224;24.712;2024-02-14T03:31:34;101318.80;;;-4.90;60.73
80644;BME280;70010;60.224;24.712;2024-02-14T03:33:59;101321.10;;;-6.00;63.16
80644;BME280;70010;60.224;24.712;2024-02-14T03:36:24;101324.28;;;-5.30;61.54
80644;BME280;70010;60.224;24.712;2024-02-14T03:38:49;101322.01;;;-6.22;65.69
80644;BME280;70010;60.224;24.712;2024-02-14T03:41:14;101329.93;;;-5.19;61.64
80644;BME280;70010;60.224;24.712;2024-02-14T03:43:40;101325.13;;;-5.76;63.11
80644;BME280;70010;60.224;24.712;2024-02-14T03:46:05;101329.38;;;-5.84;62.38
80644;BME280;70010;60.224;24.712;2024-02-14T03:48:31;101327.30;;;-7.40;69.43
80644;BME280;70010;60.224;24.712;2024-02-14T03:50:56;101335.74;;;-5.15;62.17
80644;BME280;70010;60.224;24.712;2024-02-14T03:53:22;101331.42;;;-5.59;62.21
80644;BME280;70010;60.224;24.712;2024-02-14T03:55:46;101342.83;;;-6.69;68.22
80644;BME280;70010;60.224;24.712;2024-02-14T03:58:11;101342.05;;;-5.00;62.39
80644;BME280;70010;60.224;24.712;2024-02-14T04:00:37;101342.65;;;-6.55;67.37
80644;BME280;70010;60.224;24.712;2024-02-14T04:03:02;101341.45;;;-5.84;64.97
80644;BME280;70010;60.224;24.712;2024-02-14T04:05:27;101347.59;;;-5.30;62.91
80644;BME280;70010;60.224;24.712;2024-02-14T04:07:53;101340.68;;;-5.59;62.18
80644;BME280;70010;60.224;24.712;2024-02-14T04:10:18;101348.28;;;-5.30;61.83
80644;BME280;70010;60.224;24.712;2024-02-14T04:12:44;101345.74;;;-6.01;64.52
80644;BME280;70010;60.224;24.712;2024-02-14T04:15:09;101346.81;;;-4.88;61.80
80644;BME280;70010;60.224;24.712;2024-02-14T04:17:36;101343.91;;;-4.56;59.17
80644;BME280;70010;60.224;24.712;2024-02-14T04:20:02;101350.42;;;-6.02;63.79
80644;BME280;70010;60.224;24.712;2024-02-14T04:22:28;101347.33;;;-4.67;60.14
80644;BME280;70010;60.224;24.712;2024-02-14T04:24:52;101342.38;;;-4.59;59.46
80644;BME280;70010;60.224;24.712;2024-02-14T04:27:18;101352.57;;;-5.33;61.61
80644;BME280;70010;60.224;24.712;2024-02-14T04:29:45;101347.93;;;-5.72;62.26
80644;BME280;70010;60.224;24.712;2024-02-14T04:32:09;101352.83;;;-6.90;66.65
80644;BME280;70010;60.224;24.712;2024-02-14T04:34:34;101349.91;;;-6.62;65.70
80644;BME280;70010;60.224;24.712;2024-02-14T04:36:59;101355.28;;;-6.11;65.76
80644;BME280;70010;60.224;24.712;2024-02-14T04:39:24;101350.10;;;-6.18;65.46
80644;BME280;70010;60.224;24.712;2024-02-14T04:41:49;101346.12;;;-4.44;61.33
80644;BME280;70010;60.224;24.712;2024-02-14T04:44:15;101356.56;;;-5.88;65.54
80644;BME280;70010;60.224;24.712;2024-02-14T04:46:40;101356.75;;;-5.29;62.50
80644;BME280;70010;60.224;24.712;2024-02-14T04:49:05;101359.03;;;-7.59;72.06
80644;BME280;70010;60.224;24.712;2024-02-14T04:51:31;101357.46;;;-6.52;68.67
80644;BME280;70010;60.224;24.712;2024-02-14T04:53:57;101355.47;;;-6.32;67.46
80644;BME280;70010;60.224;24.712;2024-02-14T04:56:22;101363.62;;;-6.21;66.05
80644;BME280;70010;60.224;24.712;2024-02-14T04:58:47;101367.45;;;-7.18;71.13
80644;BME280;70010;60.224;24.712;2024-02-14T05:01:12;101362.74;;;-6.02;66.48
80644;BME280;70010;60.224;24.712;2024-02-14T05:03:38;101363.92;;;-4.67;61.56
80644;BME280;70010;60.224;24.712;2024-02-14T05:06:03;101363.02;;;-5.29;63.63
80644;BME280;70010;60.224;24.712;2024-02-14T05:08:28;101362.95;;;-6.83;68.21
80644;BME280;70010;60.224;24.712;2024-02-14T05:10:53;101369.44;;;-5.70;65.89
80644;BME280;70010;60.224;24.712;2024-02-14T05:13:19;101370.53;;;-5.93;67.60
80644;BME280;70010;60.224;24.712;2024-02-14T05:15:44;101374.82;;;-5.72;65.37
80644;BME280;70010;60.224;24.712;2024-02-14T05:18:09;101377.45;;;-4.76;63.01
80644;BME280;70010;60.224;24.712;2024-02-14T05:20:35;101375.84;;;-4.88;62.27
80644;BME280;70010;60.224;24.712;2024-02-14T05:23:00;101379.00;;;-6.32;66.55
80644;BME280;70010;60.224;24.712;2024-02-14T05:25:25;101380.72;;;-4.48;62.37
80644;BME280;70010;60.224;24.712;2024-02-14T05:27:51;101387.95;;;-7.04;70.18
80644;BME280;70010;60.224;24.712;2024-02-14T05:30:16;101388.56;;;-5.25;64.30
80644;BME280;70010;60.224;24.712;2024-02-14T05:32:41;101385.21;;;-4.87;62.72
80644;BME280;70010;60.224;24.712;2024-02-14T05:35:07;101383.50;;;-7.11;67.97
80644;BME280;70010;60.224;24.712;2024-02-14T05:37:31;101376.11;;;-4.42;61.88
80644;BME280;70010;60.224;24.712;2024-02-14T05:39:57;101386.66;;;-3.50;60.06
80644;BME280;70010;60.224;24.712;2024-02-14T05:42:22;101397.30;;;-4.94;63.04
80644;BME280;70010;60.224;24.712;2024-02-14T05:44:48;101392.80;;;-3.31;58.27
80644;BME280;70010;60.224;24.712;2024-02-14T05:47:13;101402.14;;;-6.97;69.99
80644;BME280;70010;60.224;24.712;2024-02-14T05:49:39;101407.19;;;-6.01;67.32
80644;BME280;70010;60.224;24.712;2024-02-14T05:52:04;101409.15;;;-5.88;67.34
80644;BME280;70010;60.224;24.712;2024-02-14T05:54:29;101407.98;;;-6.67;70.50
80644;BME280;70010;60.224;24.712;2024-02-14T05:56:55;101409.99;;;-5.40;65.92
80644;BME280;70010;60.224;24.712;2024-02-14T05:59:20;101408.51;;;-4.09;60.78
80644;BME280;70010;60.224;24.712;2024-02-14T06:01:45;101416.31;;;-5.22;64.36
80644;BME280;70010;60.224;24.712;2024-02-14T06:04:11;101409.68;;;-4.47;61.14
80644;BME280;70010;60.224;24.712;2024-02-14T06:06:36;101415.27;;;-5.21;65.12
80644;BME280;70010;60.224;24.712;2024-02-14T06:09:02;101419.13;;;-4.74;63.03
80644;BME280;70010;60.224;24.712;2024-02-14T06:11:27;101420.05;;;-5.37;63.70
80644;BME280;70010;60.224;24.712;2024-02-14T06:13:52;101422.91;;;-4.50;63.58
80644;BME280;70010;60.224;24.712;2024-02-14T06:16:18;101422.98;;;-5.28;64.53
80644;BME280;70010;60.224;24.712;2024-02-14T06:18:44;101421.57;;;-3.55;60.02
80644;BME280;70010;60.224;24.712;2024-02-14T06:21:09;101430.24;;;-4.89;62.82
80644;BME280;70010;60.224;24.712;2024-02-14T06:23:35;101427.99;;;-4.31;61.11
80644;BME280;70010;60.224;24.712;2024-02-14T06:26:00;101425.95;;;-3.38;59.06
80644;BME280;70010;60.224;24.712;2024-02-14T06:28:25;101427.25;;;-3.53;58.56
80644;BME280;70010;60.224;24.712;2024-02-14T06:30:51;101428.07;;;-4.70;63.30
80644;BME280;70010;60.224;24.712;2024-02-14T06:33:16;101426.96;;;-3.48;59.42
80644;BME280;70010;60.224;24.712;2024-02-14T06:35:42;101430.16;;;-2.64;57.17
80644;BME280;70010;60.224;24.712;2024-02-14T06:38:07;101433.01;;;-3.16;58.10
80644;BME280;70010;60.224;24.712;2024-02-14T06:40:32;101436.21;;;-3.59;58.63
80644;BME280;70010;60.224;24.712;2024-02-14T06:42:57;101442.50;;;-5.08;63.87
80644;BME280;70010;60.224;24.712;2024-02-14T06:45:22;101438.04;;;-2.90;57.40
80644;BME280;70010;60.224;24.712;2024-02-14T06:47:48;101446.48;;;-5.08;62.73
80644;BME280;70010;60.224;24.712;2024-02-14T06:50:14;101441.60;;;-4.67;61.50
80644;BME280;70010;60.224;24.712;2024-02-14T06:52:39;101435.07;;;-3.27;58.58
80644;BME280;70010;60.224;24.712;2024-02-14T06:55:05;101437.01;;;-2.62;57.37
80644;BME280;70010;60.224;24.712;2024-02-14T06:57:29;101438.96;;;-3.55;58.87
80644;BME280;70010;60.224;24.712;2024-02-14T06:59:55;101447.61;;;-4.45;60.96
80644;BME280;70010;60.224;24.712;2024-02-14T07:02:21;101451.90;;;-4.52;62.54
80644;BME280;70010;60.224;24.712;2024-02-14T07:04:46;101444.34;;;-3.35;59.05
80644;BME280;70010;60.224;24.712;2024-02-14T07:07:12;101452.44;;;-4.97;63.72
80644;BME280;70010;60.224;24.712;2024-02-14T07:09:37;101449.00;;;-4.30;62.71
80644;BME280;70010;60.224;24.712;2024-02-14T07:12:03;101452.74;;;-3.56;60.95
80644;BME280;70010;60.224;24.712;2024-02-14T07:14:28;101450.80;;;-4.43;62.07
80644;BME280;70010;60.224;24.712;2024-02-14T07:16:53;101451.68;;;-2.40;57.28
80644;BME280;70010;60.224;24.712;2024-02-14T07:19:19;101452.92;;;-3.16;58.48
80644;BME280;70010;60.224;24.712;2024-02-14T07:21:44;101455.32;;;-3.89;60.88
80644;BME280;70010;60.224;24.712;2024-02-14T07:24:10;101457.56;;;-3.51;59.80
80644;BME280;70010;60.224;24.712;2024-02-14T07:26:35;101452.46;;;-2.09;55.52
80644;BME280;70010;60.224;24.712;2024-02-14T07:29:00;101451.48;;;-2.10;54.95
80644;BME280;70010;60.224;24.712;2024-02-14T07:31:29;101450.35;;;-1.85;54.32
80644;BME280;70010;60.224;24.712;2024-02-14T07:33:52;101453.80;;;-1.98;54.45
80644;BME280;70010;60.224;24.712;2024-02-14T07:36:17;101456.86;;;-3.39;57.53
80644;BME280;70010;60.224;24.712;2024-02-14T07:38:42;101459.58;;;-1.86;54.72
80644;BME280;70010;60.224;24.712;2024-02-14T07:41:08;101464.32;;;-2.22;55.07
80644;BME280;70010;60.224;24.712;2024-02-14T07:43:33;101463.90;;;-1.48;53.19
80644;BME280;70010;60.224;24.712;2024-02-14T07:45:58;101466.94;;;-1.45;52.50
80644;BME280;70010;60.224;24.712;2024-02-14T07:48:23;101468.13;;;-1.97;53.07
80644;BME280;70010;60.224;24.712;2024-02-14T07:50:49;101468.04;;;-1.17;52.29
80644;BME280;70010;60.224;24.712;2024-02-14T07:53:14;101473.93;;;-1.41;52.05
80644;BME280;70010;60.224;24.712;2024-02-14T07:55:40;101479.33;;;-2.61;55.78
80644;BME280;70010;60.224;24.712;2024-02-14T07:58:05;101476.14;;;-1.11;52.75
80644;BME280;70010;60.224;24.712;2024-02-14T08:00:30;101477.66;;;-1.81;53.71
80644;BME280;70010;60.224;24.712;2024-02-14T08:02:56;101484.79;;;-3.42;58.56
80644;BME280;70010;60.224;24.712;2024-02-14T08:05:22;101488.27;;;-2.88;57.64
80644;BME280;70010;60.224;24.712;2024-02-14T08:07:47;101487.55;;;-1.64;54.78
80644;BME280;70010;60.224;24.712;2024-02-14T08:10:13;101491.88;;;-2.93;57.61
80644;BME280;70010;60.224;24.712;2024-02-14T08:12:38;101488.73;;;-1.70;55.65
80644;BME280;70010;60.224;24.712;2024-02-14T08:15:04;101490.32;;;-1.37;54.07
80644;BME280;70010;60.224;24.712;2024-02-14T08:17:28;101491.76;;;-0.99;53.18
80644;BME280;70010;60.224;24.712;2024-02-14T08:19:54;101498.80;;;-2.65;57.48
80644;BME280;70010;60.224;24.712;2024-02-14T08:22:19;101500.50;;;-1.61;55.44
80644;BME280;70010;60.224;24.712;2024-02-14T08:24:45;101498.79;;;-1.25;53.47
80644;BME280;70010;60.224;24.712;2024-02-14T08:27:10;101500.06;;;-0.73;54.15
80644;BME280;70010;60.224;24.712;2024-02-14T08:29:35;101502.28;;;-0.41;53.34
80644;BME280;70010;60.224;24.712;2024-02-14T08:32:00;101509.72;;;-3.33;61.41
80644;BME280;70010;60.224;24.712;2024-02-14T08:34:26;101509.94;;;-1.24;55.79
80644;BME280;70010;60.224;24.712;2024-02-14T08:36:50;101514.72;;;-0.48;55.42
80644;BME280;70010;60.224;24.712;2024-02-14T08:39:16;101516.08;;;-0.45;54.23
80644;BME280;70010;60.224;24.712;2024-02-14T08:41:44;101512.79;;;-0.76;54.99
80644;BME280;70010;60.224;24.712;2024-02-14T08:44:07;101514.19;;;-0.34;54.65
80644;BME280;70010;60.224;24.712;2024-02-14T08:46:32;101519.72;;;-2.72;61.35
80644;BME280;70010;60.224;24.712;2024-02-14T08:48:59;101518.75;;;-0.13;56.33
80644;BME280;70010;60.224;24.712;2024-02-14T08:51:23;101523.42;;;-0.20;55.69
80644;BME280;70010;60.224;24.712;2024-02-14T08:53:48;101529.55;;;-1.65;57.80
80644;BME280;70010;60.224;24.712;2024-02-14T08:56:13;101530.16;;;-0.17;55.04
80644;BME280;70010;60.224;24.712;2024-02-14T08:58:39;101535.62;;;-0.13;54.87
80644;BME280;70010;60.224;24.712;2024-02-14T09:01:04;101537.56;;;-0.03;54.11
80644;BME280;70010;60.224;24.712;2024-02-14T09:03:29;101540.76;;;0.38;54.04
80644;BME280;70010;60.224;24.712;2024-02-14T09:05:54;101544.95;;;-2.39;59.80
80644;BME280;70010;60.224;24.712;2024-02-14T09:08:20;101546.72;;;-1.88;58.81
80644;BME280;70010;60.224;24.712;2024-02-14T09:10:45;101548.17;;;-0.14;55.37
80644;BME280;70010;60.224;24.712;2024-02-14T09:13:10;101553.41;;;-0.83;56.30
80644;BME280;70010;60.224;24.712;2024-02-14T09:15:36;101553.81;;;-0.09;54.23
80644;BME280;70010;60.224;24.712;2024-02-14T09:18:01;101557.17;;;-0.33;54.61
80644;BME280;70010;60.224;24.712;2024-02-14T09:20:27;101555.76;;;0.14;54.01
80644;BME280;70010;60.224;24.712;2024-02-14T09:22:52;101559.85;;;0.35;53.33
80644;BME280;70010;60.224;24.712;2024-02-14T09:25:18;101566.94;;;-0.11;53.67
80644;BME280;70010;60.224;24.712;2024-02-14T09:27:43;101565.05;;;0.18;52.75
80644;BME280;70010;60.224;24.712;2024-02-14T09:30:09;101566.36;;;0.88;51.79
80644;BME280;70010;60.224;24.712;2024-02-14T09:32:34;101569.98;;;0.90;51.60
80644;BME280;70010;60.224;24.712;2024-02-14T09:34:59;101568.42;;;0.86;51.57
80644;BME280;70010;60.224;24.712;2024-02-14T09:37:24;101572.39;;;0.71;51.51
80644;BME280;70010;60.224;24.712;2024-02-14T09:39:50;101575.81;;;0.89;51.10
80644;BME280;70010;60.224;24.712;2024-02-14T09:42:16;101568.70;;;1.16;50.72
80644;BME280;70010;60.224;24.712;2024-02-14T09:44:41;101576.40;;;0.54;51.22
80644;BME280;70010;60.224;24.712;2024-02-14T09:47:07;101573.69;;;0.84;50.75
80644;BME280;70010;60.224;24.712;2024-02-14T09:49:32;101574.05;;;0.93;50.36
80644;BME280;70010;60.224;24.712;2024-02-14T09:51:56;101573.74;;;1.33;50.24
80644;BME280;70010;60.224;24.712;2024-02-14T09:54:22;101575.89;;;1.19;50.00
80644;BME280;70010;60.224;24.712;2024-02-14T09:56:49;101578.11;;;-0.72;53.95
80644;BME280;70010;60.224;24.712;2024-02-14T09:59:12;101583.84;;;-0.54;53.61
80644;BME280;70010;60.224;24.712;2024-02-14T10:01:38;101588.00;;;0.85;50.88
80644;BME280;70010;60.224;24.712;2024-02-14T10:04:03;101590.55;;;-0.23;53.21
80644;BME280;70010;60.224;24.712;2024-02-14T10:06:28;101595.97;;;0.39;51.86
80644;BME280;70010;60.224;24.712;2024-02-14T10:08:54;101594.88;;;0.46;51.85
80644;BME280;70010;60.224;24.712;2024-02-14T10:11:19;101601.24;;;0.02;53.72
80644;BME280;70010;60.224;24.712;2024-02-14T10:13:45;101603.25;;;-0.06;54.06
80644;BME280;70010;60.224;24.712;2024-02-14T10:16:10;101602.26;;;-0.05;52.89
80644;BME280;70010;60.224;24.712;2024-02-14T10:18:35;101602.80;;;1.10;51.19
80644;BME280;70010;60.224;24.712;2024-02-14T10:21:00;101599.74;;;0.81;51.28
80644;BME280;70010;60.224;24.712;2024-02-14T10:23:27;101601.99;;;0.93;50.81
80644;BME280;70010;60.224;24.712;2024-02-14T10:25:53;101600.35;;;1.32;51.28
80644;BME280;70010;60.224;24.712;2024-02-14T10:28:17;101604.23;;;0.97;51.07
80644;BME280;70010;60.224;24.712;2024-02-14T10:30:45;101606.56;;;0.96;51.02
80644;BME280;70010;60.224;24.712;2024-02-14T10:33:07;101606.34;;;0.82;50.76
80644;BME280;70010;60.224;24.712;2024-02-14T10:35:34;101610.26;;;0.71;50.67
80644;BME280;70010;60.224;24.712;2024-02-14T10:37:58;101614.13;;;1.10;50.69
80644;BME280;70010;60.224;24.712;2024-02-14T10:40:24;101616.99;;;-0.14;53.53
80644;BME280;70010;60.224;24.712;2024-02-14T10:42:49;101618.16;;;0.15;52.82
80644;BME280;70010;60.224;24.712;2024-02-14T10:45:14;101621.38;;;0.97;50.88
80644;BME280;70010;60.224;24.712;2024-02-14T10:47:43;101619.51;;;1.40;50.21
80644;BME280;70010;60.224;24.712;2024-02-14T10:50:06;101625.81;;;1.02;50.91
80644;BME280;70010;60.224;24.712;2024-02-14T10:52:32;101629.70;;;-0.28;52.77
80644;BME280;70010;60.224;24.712;2024-02-14T10:54:57;101631.60;;;-0.91;56.04
80644;BME280;70010;60.224;24.712;2024-02-14T10:57:21;101634.19;;;0.35;52.31
80644;BME280;70010;60.224;24.712;2024-02-14T10:59:47;101634.82;;;1.09;51.12
80644;BME280;70010;60.224;24.712;2024-02-14T11:02:12;101635.83;;;1.09;50.50
80644;BME280;70010;60.224;24.712;2024-02-14T11:04:37;101636.19;;;1.25;50.04
80644;BME280;70010;60.224;24.712;2024-02-14T11:07:03;101635.19;;;1.06;49.99
80644;BME280;70010;60.224;24.712;2024-02-14T11:09:32;101635.34;;;1.29;49.91
80644;BME280;70010;60.224;24.712;2024-02-14T11:11:59;101630.05;;;1.79;50.10
80644;BME280;70010;60.224;24.712;2024-02-14T11:14:19;101636.86;;;1.46;50.18
80644;BME280;70010;60.224;24.712;2024-02-14T11:16:45;101634.12;;;1.31;50.12
80644;BME280;70010;60.224;24.712;2024-02-14T11:19:10;101635.27;;;1.38;49.80
80644;BME280;70010;60.224;24.712;2024-02-14T11:21:36;101633.75;;;1.17;50.29
80644;BME280;70010;60.224;24.712;2024-02-14T11:24:05;101636.19;;;1.46;50.00
80644;BME280;70010;60.224;24.712;2024-02-14T11:26:26;101635.32;;;1.39;49.54
80644;BME280;70010;60.224;24.712;2024-02-14T11:28:59;101636.68;;;1.59;49.64
80644;BME280;70010;60.224;24.712;2024-02-14T11:31:17;101641.66;;;1.16;49.36
80644;BME280;70010;60.224;24.712;2024-02-14T11:33:42;101643.97;;;1.27;49.17
80644;BME280;70010;60.224;24.712;2024-02-14T11:36:09;101652.72;;;0.62;51.00
80644;BME280;70010;60.224;24.712;2024-02-14T11:38:33;101648.48;;;1.55;49.76
80644;BME280;70010;60.224;24.712;2024-02-14T11:40:58;101650.38;;;1.60;50.29
80644;BME280;70010;60.224;24.712;2024-02-14T11:43:23;101652.30;;;1.96;50.02
80644;BME280;70010;60.224;24.712;2024-02-14T11:45:49;101656.99;;;1.40;50.44
80644;BME280;70010;60.224;24.712;2024-02-14T11:48:15;101661.05;;;1.19;50.39
80644;BME280;70010;60.224;24.712;2024-02-14T11:50:40;101661.63;;;1.37;49.94
80644;BME280;70010;60.224;24.712;2024-02-14T11:53:05;101662.46;;;1.25;49.72
80644;BME280;70010;60.224;24.712;2024-02-14T11:55:30;101661.18;;;0.90;50.06
80644;BME280;70010;60.224;24.712;2024-02-14T11:57:56;101665.62;;;1.16;50.97
80644;BME280;70010;60.224;24.712;2024-02-14T12:00:21;101667.80;;;1.34;50.08
80644;BME280;70010;60.224;24.712;2024-02-14T12:02:46;101670.13;;;0.11;52.70
80644;BME280;70010;60.224;24.712;2024-02-14T12:05:11;101670.92;;;1.59;50.04
80644;BME280;70010;60.224;24.712;2024-02-14T12:07:37;101666.81;;;1.67;50.18
80644;BME280;70010;60.224;24.712;2024-02-14T12:10:03;101671.48;;;1.12;50.21
80644;BME280;70010;60.224;24.712;2024-02-14T12:12:28;101676.10;;;1.32;50.55
80644;BME280;70010;60.224;24.712;2024-02-14T12:14:53;101676.41;;;2.05;50.02
80644;BME280;70010;60.224;24.712;2024-02-14T12:17:18;101679.15;;;1.01;51.48
80644;BME280;70010;60.224;24.712;2024-02-14T12:19:44;101680.38;;;-0.84;55.19
80644;BME280;70010;60.224;24.712;2024-02-14T12:22:10;101680.00;;;0.44;52.35
80644;BME280;70010;60.224;24.712;2024-02-14T12:24:34;101683.47;;;1.15;51.26
80644;BME280;70010;60.224;24.712;2024-02-14T12:27:00;101683.74;;;1.00;50.92
80644;BME280;70010;60.224;24.712;2024-02-14T12:29:25;101687.37;;;1.21;50.48
80644;BME280;70010;60.224;24.712;2024-02-14T12:31:51;101688.05;;;0.80;51.27